createdAt,value
2019-04-14T16:23:18.000Z,1017.861
2019-04-14T16:33:18.000Z,1017.937
2019-04-14T16:43:18.000Z,1018.025
2019-04-14T16:53:21.000Z,1018.111
2019-04-14T17:03:18.000Z,1018.194
2019-04-14T17:13:18.000Z,1018.361
2019-04-14T17:23:18.000Z,1018.498
2019-04-14T17:33:18.000Z,1018.593
2019-04-14T17:43:18.000Z,1018.634
2019-04-14T17:53:22.000Z,1018.754
2019-04-14T18:03:22.000Z,1018.962
2019-04-14T18:13:20.000Z,1019.023
2019-04-14T18:23:18.000Z,1019.127
2019-04-14T18:33:18.000Z,1019.239
2019-04-14T18:53:18.000Z,1019.354
2019-04-14T19:03:18.000Z,1019.365
2019-04-14T19:13:18.000Z,1019.367
2019-04-14T19:23:19.000Z,1019.387
2019-04-14T19:43:18.000Z,1019.428
2019-04-14T19:53:19.000Z,1019.52
2019-04-14T20:03:18.000Z,1019.597
2019-04-14T20:13:19.000Z,1019.633
2019-04-14T20:23:18.000Z,1019.747
2019-04-14T20:43:20.000Z,1019.856
2019-04-14T20:53:19.000Z,1019.912
2019-04-14T21:03:18.000Z,1019.957
2019-04-14T21:13:18.000Z,1020.054
2019-04-14T21:23:19.000Z,1020.071
2019-04-14T21:33:18.000Z,1020.148
2019-04-14T21:43:19.000Z,1020.128
2019-04-14T21:53:18.000Z,1020.206
2019-04-14T22:03:19.000Z,1020.211
2019-04-14T22:13:19.000Z,1020.124
2019-04-14T22:23:19.000Z,1020.02
2019-04-14T22:33:19.000Z,1020.058
2019-04-14T22:43:20.000Z,1020.077
2019-04-14T22:53:22.000Z,1020.031
2019-04-14T23:03:19.000Z,1020.002
2019-04-14T23:13:19.000Z,1020.038
2019-04-14T23:23:19.000Z,1019.962
2019-04-14T23:33:20.000Z,1019.877
2019-04-14T23:43:20.000Z,1019.768
2019-04-14T23:53:19.000Z,1019.778
